Time;durP1;ratioP1;P1;durP2;ratioP2;P2;SDS_P1;SDS_P2;PMS_P1;PMS_P2;Temp;Humidity;BMP_temperature;BMP_pressure;BME280_temperature;BME280_humidity;BME280_pressure;Samples;Min_cycle;Max_cycle;Signal;HPM_P1;HPM_P2
2022/03/11 00:02:39;0.00;0.00;0.62;0.00;0.00;0.62;7.33;6.23;;;24.60;18.30;;;;;;2265998;61;20396;-64
2022/03/11 00:05:25;0.00;0.00;0.62;0.00;0.00;0.62;6.37;5.73;;;24.50;18.30;;;;;;2266214;61;20462;-60
2022/03/11 00:08:10;0.00;0.00;0.62;0.00;0.00;0.62;7.47;6.57;;;24.50;18.20;;;;;;2265196;61;20358;-61
2022/03/11 00:10:55;0.00;0.00;0.62;0.00;0.00;0.62;6.47;5.87;;;24.50;18.30;;;;;;2266288;61;20717;-62
2022/03/11 00:13:40;0.00;0.00;0.62;0.00;0.00;0.62;5.50;5.00;;;24.40;18.20;;;;;;2266119;61;20425;-65
2022/03/11 00:16:24;0.00;0.00;0.62;0.00;0.00;0.62;6.70;6.10;;;24.30;18.20;;;;;;2265381;61;20427;-65
2022/03/11 00:19:08;0.00;0.00;0.62;0.00;0.00;0.62;6.50;5.67;;;24.30;18.10;;;;;;2266294;61;20706;-60
2022/03/11 00:21:55;0.00;0.00;0.62;0.00;0.00;0.62;6.40;5.80;;;24.20;18.10;;;;;;2265482;61;20787;-65
2022/03/11 00:24:41;0.00;0.00;0.62;0.00;0.00;0.62;7.13;6.43;;;24.20;18.10;;;;;;2265922;61;20795;-65
2022/03/11 00:27:26;0.00;0.00;0.62;0.00;0.00;0.62;6.87;5.80;;;24.10;18.00;;;;;;2266205;61;20357;-62
2022/03/11 00:30:12;0.00;0.00;0.62;0.00;0.00;0.62;5.87;5.37;;;24.10;18.00;;;;;;2265350;61;20383;-64
2022/03/11 00:32:57;0.00;0.00;0.62;0.00;0.00;0.62;7.03;5.43;;;24.00;18.00;;;;;;2266159;61;20576;-64
2022/03/11 00:35:42;0.00;0.00;0.62;0.00;0.00;0.62;6.33;5.73;;;24.00;18.00;;;;;;2266136;61;20392;-60
2022/03/11 00:38:26;0.00;0.00;0.62;0.00;0.00;0.62;6.83;6.17;;;23.90;18.00;;;;;;2265248;61;20599;-61
2022/03/11 00:41:12;0.00;0.00;0.62;0.00;0.00;0.62;7.50;6.27;;;23.90;18.00;;;;;;2265889;61;20353;-60
2022/03/11 00:43:57;0.00;0.00;0.62;0.00;0.00;0.62;7.17;6.47;;;23.80;18.00;;;;;;2265286;61;20422;-65
2022/03/11 00:46:42;0.00;0.00;0.62;0.00;0.00;0.62;7.40;6.50;;;23.70;18.00;;;;;;2265907;61;20601;-64
2022/03/11 00:49:26;0.00;0.00;0.62;0.00;0.00;0.62;6.17;5.53;;;23.70;18.00;;;;;;2265992;61;20356;-65
2022/03/11 00:52:11;0.00;0.00;0.62;0.00;0.00;0.62;7.20;5.80;;;23.70;18.00;;;;;;2265479;61;20388;-62
2022/03/11 00:54:56;0.00;0.00;0.62;0.00;0.00;0.62;6.33;5.73;;;23.60;17.90;;;;;;2265990;61;20373;-62
2022/03/11 00:57:42;0.00;0.00;0.62;0.00;0.00;0.62;7.07;5.87;;;23.60;17.90;;;;;;2265861;61;20415;-62
2022/03/11 01:00:26;0.00;0.00;0.62;0.00;0.00;0.62;7.63;6.20;;;23.50;17.90;;;;;;2264916;61;20361;-61
2022/03/11 01:03:11;0.00;0.00;0.62;0.00;0.00;0.62;6.20;5.60;;;23.50;17.90;;;;;;2266089;61;20353;-60
2022/03/11 01:05:55;0.00;0.00;0.62;0.00;0.00;0.62;7.70;6.10;;;23.40;17.90;;;;;;2265822;61;20401;-62
2022/03/11 01:08:40;0.00;0.00;0.62;0.00;0.00;0.62;6.40;5.70;;;23.40;17.90;;;;;;2265808;61;20763;-64
2022/03/11 01:11:25;0.00;0.00;0.62;0.00;0.00;0.62;7.47;6.53;;;23.40;17.90;;;;;;2266037;61;20349;-63
2022/03/11 01:14:11;0.00;0.00;0.62;0.00;0.00;0.62;6.53;5.90;;;23.30;17.90;;;;;;2265314;61;20429;-65
2022/03/11 01:16:55;0.00;0.00;0.62;0.00;0.00;0.62;7.27;6.50;;;23.30;18.00;;;;;;2265365;61;20380;-61
2022/03/11 01:19:40;0.00;0.00;0.62;0.00;0.00;0.62;7.07;6.17;;;23.20;17.90;;;;;;2266013;61;20388;-62
2022/03/11 01:22:25;0.00;0.00;0.62;0.00;0.00;0.62;6.13;5.40;;;23.20;17.90;;;;;;2265035;61;20419;-62
2022/03/11 01:25:09;0.00;0.00;0.62;0.00;0.00;0.62;6.73;5.93;;;23.20;17.90;;;;;;2265927;61;20772;-62
2022/03/11 01:27:54;0.00;0.00;0.62;0.00;0.00;0.62;5.97;5.33;;;23.10;17.90;;;;;;2266041;61;20428;-63
2022/03/11 01:30:40;0.00;0.00;0.62;0.00;0.00;0.62;7.60;6.30;;;23.10;17.90;;;;;;2265574;61;20641;-61
2022/03/11 01:33:24;0.00;0.00;0.62;0.00;0.00;0.62;6.63;5.70;;;23.10;18.00;;;;;;2265800;61;20360;-64
2022/03/11 01:36:11;0.00;0.00;0.62;0.00;0.00;0.62;6.73;6.03;;;23.10;18.00;;;;;;2265322;61;20381;-64
2022/03/11 01:38:56;0.00;0.00;0.62;0.00;0.00;0.62;6.07;5.47;;;23.00;17.90;;;;;;2265764;61;20357;-63
2022/03/11 01:41:41;0.00;0.00;0.62;0.00;0.00;0.62;8.83;5.80;;;23.00;18.00;;;;;;2265634;61;20342;-64
2022/03/11 01:44:27;0.00;0.00;0.62;0.00;0.00;0.62;6.53;5.17;;;23.00;18.00;;;;;;2264846;61;20760;-63
2022/03/11 01:47:13;0.00;0.00;0.62;0.00;0.00;0.62;6.37;5.57;;;23.00;18.00;;;;;;2265936;61;20357;-63
2022/03/11 01:49:57;0.00;0.00;0.62;0.00;0.00;0.62;5.70;4.70;;;22.90;17.90;;;;;;2265887;61;20696;-60
2022/03/11 01:52:42;0.00;0.00;0.62;0.00;0.00;0.62;6.60;6.00;;;22.90;17.90;;;;;;2265184;61;20364;-59
2022/03/11 01:55:26;0.00;0.00;0.62;0.00;0.00;0.62;7.30;6.50;;;22.90;17.90;;;;;;2265740;61;20414;-63
2022/03/11 01:58:11;0.00;0.00;0.62;0.00;0.00;0.62;6.50;5.90;;;22.80;17.80;;;;;;2265058;61;20392;-61
2022/03/11 02:00:56;0.00;0.00;0.62;0.00;0.00;0.62;8.07;6.33;;;22.80;17.80;;;;;;2265681;61;20356;-61
2022/03/11 02:03:41;0.00;0.00;0.62;0.00;0.00;0.62;6.87;5.90;;;22.80;17.80;;;;;;2265704;61;20357;-63
2022/03/11 02:06:28;0.00;0.00;0.62;0.00;0.00;0.62;6.20;5.60;;;22.70;17.80;;;;;;2265021;61;20383;-61
2022/03/11 02:09:13;0.00;0.00;0.62;0.00;0.00;0.62;7.13;6.00;;;22.70;17.80;;;;;;2265879;61;20384;-59
2022/03/11 02:11:57;0.00;0.00;0.62;0.00;0.00;0.62;6.73;5.97;;;22.60;17.70;;;;;;2265873;61;20725;-64
2022/03/11 02:14:42;0.00;0.00;0.62;0.00;0.00;0.62;5.80;5.27;;;22.60;17.80;;;;;;2264893;61;20416;-61
2022/03/11 02:17:26;0.00;0.00;0.62;0.00;0.00;0.62;6.30;5.60;;;22.60;17.80;;;;;;2265783;61;20763;-63
2022/03/11 02:20:12;0.00;0.00;0.62;0.00;0.00;0.62;7.53;6.00;;;22.50;17.70;;;;;;2264682;61;20356;-62
2022/03/11 02:22:58;0.00;0.00;0.62;0.00;0.00;0.62;6.13;5.10;;;22.50;17.70;;;;;;2261488;61;20358;-63
2022/03/11 02:25:44;0.00;0.00;0.62;0.00;0.00;0.62;6.90;6.20;;;22.50;17.70;;;;;;2261742;61;20704;-63
2022/03/11 02:28:32;0.00;0.00;0.62;0.00;0.00;0.62;7.37;5.53;;;22.40;17.70;;;;;;2260809;61;20478;-62
2022/03/11 02:31:18;0.00;0.00;0.62;0.00;0.00;0.62;6.43;5.60;;;22.40;17.70;;;;;;2261743;61;20405;-62
2022/03/11 02:34:04;0.00;0.00;0.62;0.00;0.00;0.62;5.77;5.27;;;22.40;17.80;;;;;;2261766;61;20350;-59
2022/03/11 02:36:49;0.00;0.00;0.62;0.00;0.00;0.62;5.40;4.90;;;22.40;18.00;;;;;;2260928;61;20389;-65
2022/03/11 02:39:34;0.00;0.00;0.62;0.00;0.00;0.62;5.67;5.07;;;22.30;17.80;;;;;;2261888;61;20358;-60
2022/03/11 02:42:20;0.00;0.00;0.62;0.00;0.00;0.62;6.47;5.67;;;22.30;17.80;;;;;;2261170;61;20365;-59
2022/03/11 02:45:07;0.00;0.00;0.62;0.00;0.00;0.62;5.83;5.20;;;22.30;17.80;;;;;;2261380;61;20373;-61
2022/03/11 02:47:52;0.00;0.00;0.62;0.00;0.00;0.62;6.47;5.23;;;22.30;17.80;;;;;;2261732;61;20362;-65
2022/03/11 02:50:38;0.00;0.00;0.62;0.00;0.00;0.62;5.73;5.17;;;22.20;17.80;;;;;;2260241;61;20717;-65
2022/03/11 02:53:23;0.00;0.00;0.62;0.00;0.00;0.62;6.03;5.23;;;22.20;17.80;;;;;;2261477;61;20397;-63
2022/03/11 02:56:08;0.00;0.00;0.62;0.00;0.00;0.62;6.63;5.63;;;22.20;17.80;;;;;;2261469;61;20820;-66
2022/03/11 02:58:54;0.00;0.00;0.62;0.00;0.00;0.62;6.23;5.27;;;22.20;17.90;;;;;;2264663;61;20353;-65
2022/03/11 03:01:39;0.00;0.00;0.62;0.00;0.00;0.62;5.77;5.00;;;22.20;17.90;;;;;;2265778;61;20361;-63
2022/03/11 03:04:23;0.00;0.00;0.62;0.00;0.00;0.62;5.30;4.80;;;22.20;17.90;;;;;;2265414;61;20404;-63
2022/03/11 03:07:07;0.00;0.00;0.62;0.00;0.00;0.62;5.83;5.20;;;22.20;17.90;;;;;;2266074;61;20364;-63
2022/03/11 03:09:52;0.00;0.00;0.62;0.00;0.00;0.62;5.70;5.00;;;22.10;17.80;;;;;;2266389;61;20438;-63
2022/03/11 03:12:37;0.00;0.00;0.62;0.00;0.00;0.62;6.53;5.67;;;22.10;17.80;;;;;;2265735;61;20353;-68
2022/03/11 03:15:23;0.00;0.00;0.62;0.00;0.00;0.62;6.60;5.33;;;22.10;17.80;;;;;;2265979;61;20385;-66
2022/03/11 03:18:08;0.00;0.00;0.62;0.00;0.00;0.62;6.20;5.17;;;22.10;17.70;;;;;;2266442;61;20360;-65
2022/03/11 03:20:52;0.00;0.00;0.62;0.00;0.00;0.62;5.80;5.20;;;22.00;17.60;;;;;;2265490;61;20369;-66
2022/03/11 03:23:37;0.00;0.00;0.62;0.00;0.00;0.62;6.40;5.23;;;22.00;17.70;;;;;;2263054;61;20536;-62
2022/03/11 03:26:21;0.00;0.00;0.62;0.00;0.00;0.62;5.73;4.80;;;22.00;17.70;;;;;;2262371;61;20401;-59
2022/03/11 03:29:06;0.00;0.00;0.62;0.00;0.00;0.62;6.73;5.17;;;22.00;17.70;;;;;;2262003;61;20454;-61
2022/03/11 03:31:57;0.00;0.00;0.62;0.00;0.00;0.62;5.23;4.73;;;21.90;17.60;;;;;;2262293;61;20358;-65
2022/03/11 03:34:42;0.00;0.00;0.62;0.00;0.00;0.62;6.87;5.40;;;21.90;17.70;;;;;;2261438;61;20603;-66
2022/03/11 03:37:26;0.00;0.00;0.62;0.00;0.00;0.62;5.27;4.60;;;21.90;17.70;;;;;;2261999;61;20393;-63
2022/03/11 03:40:11;0.00;0.00;0.62;0.00;0.00;0.62;6.37;5.60;;;21.80;17.60;;;;;;2262231;61;20354;-66
2022/03/11 03:42:56;0.00;0.00;0.62;0.00;0.00;0.62;5.27;4.77;;;21.80;17.60;;;;;;2261382;61;20394;-65
2022/03/11 03:45:41;0.00;0.00;0.62;0.00;0.00;0.62;6.23;5.50;;;21.80;17.60;;;;;;2262339;61;20792;-65
2022/03/11 03:48:27;0.00;0.00;0.62;0.00;0.00;0.62;6.10;5.40;;;21.80;17.60;;;;;;2262239;61;20408;-64
2022/03/11 03:51:12;0.00;0.00;0.62;0.00;0.00;0.62;6.30;4.53;;;21.70;17.60;;;;;;2261763;61;20366;-63
2022/03/11 03:53:56;0.00;0.00;0.62;0.00;0.00;0.62;7.20;5.20;;;21.70;17.60;;;;;;2262215;61;20362;-64
2022/03/11 03:56:43;0.00;0.00;0.62;0.00;0.00;0.62;6.47;5.37;;;21.70;17.60;;;;;;2261457;61;20389;-64
2022/03/11 03:59:27;0.00;0.00;0.62;0.00;0.00;0.62;5.50;4.87;;;21.60;17.60;;;;;;2262061;61;20783;-63
2022/03/11 04:02:12;0.00;0.00;0.62;0.00;0.00;0.62;4.90;4.00;;;21.60;17.60;;;;;;2262223;61;20711;-65
2022/03/11 04:04:58;0.00;0.00;0.62;0.00;0.00;0.62;5.20;4.70;;;21.60;17.60;;;;;;2261105;61;20385;-64
2022/03/11 04:07:44;0.00;0.00;0.62;0.00;0.00;0.62;6.47;5.10;;;21.60;17.70;;;;;;2262306;61;20350;-61
2022/03/11 04:10:29;0.00;0.00;0.62;0.00;0.00;0.62;5.10;4.40;;;21.60;17.70;;;;;;2262154;61;20760;-63
2022/03/11 04:13:14;0.00;0.00;0.62;0.00;0.00;0.62;6.40;5.43;;;21.50;17.60;;;;;;2261267;61;20726;-63
2022/03/11 04:15:59;0.00;0.00;0.62;0.00;0.00;0.62;7.00;5.97;;;21.50;17.60;;;;;;2262152;61;20784;-63
2022/03/11 04:18:45;0.00;0.00;0.62;0.00;0.00;0.62;6.90;5.30;;;21.40;17.50;;;;;;2261490;61;20566;-64
2022/03/11 04:21:34;0.00;0.00;0.62;0.00;0.00;0.62;5.80;5.20;;;21.40;17.50;;;;;;2262009;61;20361;-60
2022/03/11 04:24:19;0.00;0.00;0.62;0.00;0.00;0.62;6.00;5.10;;;21.40;17.50;;;;;;2264732;61;20576;-64
2022/03/11 04:27:04;0.00;0.00;0.62;0.00;0.00;0.62;6.70;4.97;;;21.40;17.60;;;;;;2265371;61;20357;-66
2022/03/11 04:29:48;0.00;0.00;0.62;0.00;0.00;0.62;8.80;6.10;;;21.40;17.60;;;;;;2266267;61;20399;-65
2022/03/11 04:32:37;0.00;0.00;0.62;0.00;0.00;0.62;5.83;5.23;;;21.30;17.50;;;;;;2266206;61;20369;-64
2022/03/11 04:35:21;0.00;0.00;0.62;0.00;0.00;0.62;7.17;5.73;;;21.30;17.40;;;;;;2265190;61;20714;-64
2022/03/11 04:38:09;0.00;0.00;0.62;0.00;0.00;0.62;6.30;5.70;;;21.30;17.40;;;;;;2266183;61;20488;-64
2022/03/11 04:40:53;0.00;0.00;0.62;0.00;0.00;0.62;6.13;5.03;;;21.20;17.40;;;;;;2265440;61;20716;-62
2022/03/11 04:43:38;0.00;0.00;0.62;0.00;0.00;0.62;6.23;5.17;;;21.20;17.40;;;;;;2265854;61;20365;-64
2022/03/11 04:46:22;0.00;0.00;0.62;0.00;0.00;0.62;7.23;5.97;;;21.20;17.40;;;;;;2266145;61;20369;-64
2022/03/11 04:49:07;0.00;0.00;0.62;0.00;0.00;0.62;6.77;5.50;;;21.10;17.40;;;;;;2265426;61;20381;-63
2022/03/11 04:51:51;0.00;0.00;0.62;0.00;0.00;0.62;5.57;4.87;;;21.10;17.40;;;;;;2266063;61;20353;-63
2022/03/11 04:54:37;0.00;0.00;0.62;0.00;0.00;0.62;6.87;5.40;;;21.00;17.40;;;;;;2265947;61;20376;-67
2022/03/11 04:57:22;0.00;0.00;0.62;0.00;0.00;0.62;6.80;5.07;;;21.00;17.40;;;;;;2265026;61;20387;-64
2022/03/11 05:00:08;0.00;0.00;0.62;0.00;0.00;0.62;7.70;6.77;;;21.00;17.40;;;;;;2266122;61;20353;-65
2022/03/11 05:02:54;0.00;0.00;0.62;0.00;0.00;0.62;8.77;6.43;;;20.90;17.30;;;;;;2265409;61;20588;-65
2022/03/11 05:05:38;0.00;0.00;0.62;0.00;0.00;0.62;8.10;5.90;;;20.90;17.30;;;;;;2265618;61;20424;-63
2022/03/11 05:08:23;0.00;0.00;0.62;0.00;0.00;0.62;7.57;5.43;;;20.90;17.30;;;;;;2266087;61;20356;-62
2022/03/11 05:11:09;0.00;0.00;0.62;0.00;0.00;0.62;7.70;6.37;;;20.80;17.30;;;;;;2265210;61;20365;-64
2022/03/11 05:13:54;0.00;0.00;0.62;0.00;0.00;0.62;6.67;5.97;;;20.80;17.30;;;;;;2265772;61;20364;-61
2022/03/11 05:16:38;0.00;0.00;0.62;0.00;0.00;0.62;6.17;5.10;;;20.80;17.30;;;;;;2265417;61;20413;-64
2022/03/11 05:19:24;0.00;0.00;0.62;0.00;0.00;0.62;6.37;5.00;;;20.70;17.30;;;;;;2264914;61;20352;-65
2022/03/11 05:22:09;0.00;0.00;0.62;0.00;0.00;0.62;6.70;5.60;;;20.70;17.40;;;;;;2265949;61;20364;-64
2022/03/11 05:24:53;0.00;0.00;0.62;0.00;0.00;0.62;5.50;4.80;;;20.70;17.40;;;;;;2265711;61;20466;-64
2022/03/11 05:27:39;0.00;0.00;0.62;0.00;0.00;0.62;6.00;5.40;;;20.70;17.40;;;;;;2264176;61;20358;-63
2022/03/11 05:30:24;0.00;0.00;0.62;0.00;0.00;0.62;5.87;5.20;;;20.70;17.50;;;;;;2261767;61;20357;-61
2022/03/11 05:33:08;0.00;0.00;0.62;0.00;0.00;0.62;8.23;5.50;;;20.70;17.50;;;;;;2261112;61;20381;-61
2022/03/11 05:35:53;0.00;0.00;0.62;0.00;0.00;0.62;6.10;5.50;;;20.70;17.60;;;;;;2261597;61;20390;-62
2022/03/11 05:38:38;0.00;0.00;0.62;0.00;0.00;0.62;6.63;5.07;;;20.70;17.60;;;;;;2261952;61;20361;-65
2022/03/11 05:41:25;0.00;0.00;0.62;0.00;0.00;0.62;6.13;5.40;;;20.60;17.40;;;;;;2260981;61;20641;-65
2022/03/11 05:44:11;0.00;0.00;0.62;0.00;0.00;0.62;5.40;4.90;;;20.60;17.40;;;;;;2261783;61;20714;-61
2022/03/11 05:46:56;0.00;0.00;0.62;0.00;0.00;0.62;5.60;4.70;;;20.60;17.40;;;;;;2261942;61;20436;-63
2022/03/11 05:49:41;0.00;0.00;0.62;0.00;0.00;0.62;6.30;5.60;;;20.60;17.50;;;;;;2261458;61;20580;-61
2022/03/11 05:52:25;0.00;0.00;0.62;0.00;0.00;0.62;5.90;4.57;;;20.50;17.40;;;;;;2261902;61;20629;-64
2022/03/11 05:55:11;0.00;0.00;0.62;0.00;0.00;0.62;6.83;5.60;;;20.60;17.50;;;;;;2260991;61;20401;-64
2022/03/11 05:57:56;0.00;0.00;0.62;0.00;0.00;0.62;5.70;5.20;;;20.50;17.40;;;;;;2261548;61;20373;-64
2022/03/11 06:00:42;0.00;0.00;0.62;0.00;0.00;0.62;5.67;4.80;;;20.50;17.40;;;;;;2261934;61;20357;-61
2022/03/11 06:03:29;0.00;0.00;0.62;0.00;0.00;0.62;5.83;5.23;;;20.50;17.40;;;;;;2260585;61;20362;-64
2022/03/11 06:06:14;0.00;0.00;0.62;0.00;0.00;0.62;6.43;5.30;;;20.50;17.40;;;;;;2261861;61;20409;-64
2022/03/11 06:09:00;0.00;0.00;0.62;0.00;0.00;0.62;5.83;5.33;;;20.50;17.50;;;;;;2261831;61;20354;-65
2022/03/11 06:11:45;0.00;0.00;0.62;0.00;0.00;0.62;6.07;4.63;;;20.50;17.50;;;;;;2260979;61;20369;-65
2022/03/11 06:14:30;0.00;0.00;0.62;0.00;0.00;0.62;6.00;5.00;;;20.50;17.50;;;;;;2261585;61;20424;-65
2022/03/11 06:17:15;0.00;0.00;0.62;0.00;0.00;0.62;5.73;4.77;;;20.50;17.60;;;;;;2260883;61;20382;-64
2022/03/11 06:20:00;0.00;0.00;0.62;0.00;0.00;0.62;5.53;4.20;;;20.50;17.60;;;;;;2262684;61;20369;-66
2022/03/11 06:22:49;0.00;0.00;0.62;0.00;0.00;0.62;5.57;4.67;;;20.50;17.60;;;;;;2265898;61;20392;-64
2022/03/11 06:25:33;0.00;0.00;0.62;0.00;0.00;0.62;4.93;4.37;;;20.50;17.60;;;;;;2264525;61;20377;-66
2022/03/11 06:28:18;0.00;0.00;0.62;0.00;0.00;0.62;6.03;4.50;;;20.50;17.60;;;;;;2265829;61;20352;-63
2022/03/11 06:31:02;0.00;0.00;0.62;0.00;0.00;0.62;5.20;4.00;;;20.60;17.70;;;;;;2265724;61;20467;-64
2022/03/11 06:33:48;0.00;0.00;0.62;0.00;0.00;0.62;4.70;3.50;;;20.60;17.70;;;;;;2264648;61;20432;-67
2022/03/11 06:36:34;0.00;0.00;0.62;0.00;0.00;0.62;4.67;3.50;;;20.60;17.70;;;;;;2265822;61;20400;-63
2022/03/11 06:39:19;0.00;0.00;0.62;0.00;0.00;0.62;4.67;3.73;;;20.60;17.70;;;;;;2265024;61;20414;-65
2022/03/11 06:42:05;0.00;0.00;0.62;0.00;0.00;0.62;4.83;3.77;;;20.60;17.80;;;;;;2266216;61;20392;-62
2022/03/11 06:44:49;0.00;0.00;0.62;0.00;0.00;0.62;3.83;3.23;;;20.70;17.90;;;;;;2266448;61;20384;-63
2022/03/11 06:47:34;0.00;0.00;0.62;0.00;0.00;0.62;4.60;3.90;;;20.70;17.90;;;;;;2265513;61;20356;-64
2022/03/11 06:50:20;0.00;0.00;0.62;0.00;0.00;0.62;3.83;3.30;;;20.70;17.90;;;;;;2266460;61;20583;-59
2022/03/11 06:53:05;0.00;0.00;0.62;0.00;0.00;0.62;4.20;3.60;;;20.70;17.90;;;;;;2266447;61;20427;-63
2022/03/11 06:55:49;0.00;0.00;0.62;0.00;0.00;0.62;4.43;3.43;;;20.70;17.90;;;;;;2265564;61;20376;-63
2022/03/11 06:58:34;0.00;0.00;0.62;0.00;0.00;0.62;4.63;3.43;;;20.70;17.90;;;;;;2266583;61;20388;-62
2022/03/11 07:01:18;0.00;0.00;0.62;0.00;0.00;0.62;3.57;3.00;;;20.70;18.00;;;;;;2265618;61;20429;-65
2022/03/11 07:04:04;0.00;0.00;0.62;0.00;0.00;0.62;3.87;3.47;;;20.80;18.00;;;;;;2265983;61;20353;-63
2022/03/11 07:06:50;0.00;0.00;0.62;0.00;0.00;0.62;3.33;2.83;;;20.80;18.00;;;;;;2266440;61;20353;-64
2022/03/11 07:09:35;0.00;0.00;0.62;0.00;0.00;0.62;4.67;3.50;;;20.80;18.00;;;;;;2265179;61;20361;-65
2022/03/11 07:12:20;0.00;0.00;0.62;0.00;0.00;0.62;3.67;2.67;;;20.80;18.00;;;;;;2266055;61;20437;-62
2022/03/11 07:15:07;0.00;0.00;0.62;0.00;0.00;0.62;4.27;3.40;;;20.80;18.10;;;;;;2265796;61;20368;-63
2022/03/11 07:17:52;0.00;0.00;0.62;0.00;0.00;0.62;3.70;3.27;;;20.80;18.00;;;;;;2265141;61;20392;-64
2022/03/11 07:20:36;0.00;0.00;0.62;0.00;0.00;0.62;4.50;3.80;;;20.80;18.10;;;;;;2265595;61;20427;-64
2022/03/11 07:23:22;0.00;0.00;0.62;0.00;0.00;0.62;3.40;2.70;;;20.90;18.20;;;;;;2265578;61;20357;-63
2022/03/11 07:26:06;0.00;0.00;0.62;0.00;0.00;0.62;3.23;2.93;;;20.90;18.10;;;;;;2266022;61;20373;-62
2022/03/11 07:28:51;0.00;0.00;0.62;0.00;0.00;0.62;3.50;3.20;;;20.90;18.20;;;;;;2266344;61;20357;-63
2022/03/11 07:31:35;0.00;0.00;0.62;0.00;0.00;0.62;3.63;2.83;;;20.90;18.20;;;;;;2265396;61;20748;-66
2022/03/11 07:34:23;0.00;0.00;0.62;0.00;0.00;0.62;2.90;2.37;;;20.90;18.20;;;;;;2265963;61;20380;-61
2022/03/11 07:37:12;0.00;0.00;0.62;0.00;0.00;0.62;3.60;2.93;;;20.90;18.20;;;;;;2266253;61;20607;-63
2022/03/11 07:39:57;0.00;0.00;0.62;0.00;0.00;0.62;3.20;2.57;;;20.90;18.70;;;;;;2265072;61;20388;-63
2022/03/11 07:42:43;0.00;0.00;0.62;0.00;0.00;0.62;2.80;2.50;;;21.00;18.30;;;;;;2266333;61;20696;-65
2022/03/11 07:45:28;0.00;0.00;0.62;0.00;0.00;0.62;3.27;2.93;;;21.00;18.30;;;;;;2266174;61;20414;-65
2022/03/11 07:48:12;0.00;0.00;0.62;0.00;0.00;0.62;3.50;2.80;;;21.00;18.20;;;;;;2265915;61;20785;-61
2022/03/11 07:50:57;0.00;0.00;0.62;0.00;0.00;0.62;3.40;3.00;;;21.00;18.30;;;;;;2266175;61;20585;-63
2022/03/11 07:53:42;0.00;0.00;0.62;0.00;0.00;0.62;3.10;2.53;;;21.00;18.30;;;;;;2265295;61;20364;-64
2022/03/11 07:56:28;0.00;0.00;0.62;0.00;0.00;0.62;2.30;2.03;;;21.00;18.30;;;;;;2265838;61;20757;-63
2022/03/11 07:59:13;0.00;0.00;0.62;0.00;0.00;0.62;3.77;2.60;;;21.00;18.20;;;;;;2266352;61;20599;-63
2022/03/11 08:01:58;0.00;0.00;0.62;0.00;0.00;0.62;3.13;2.30;;;21.00;18.20;;;;;;2265082;61;20387;-64
2022/03/11 08:04:43;0.00;0.00;0.62;0.00;0.00;0.62;3.13;2.43;;;21.10;18.30;;;;;;2266016;61;20380;-64
2022/03/11 08:07:27;0.00;0.00;0.62;0.00;0.00;0.62;3.40;2.70;;;21.10;18.30;;;;;;2266270;61;20388;-65
2022/03/11 08:10:12;0.00;0.00;0.62;0.00;0.00;0.62;3.07;2.77;;;21.10;18.30;;;;;;2265632;61;20360;-65
2022/03/11 08:13:00;0.00;0.00;0.62;0.00;0.00;0.62;2.30;1.83;;;21.10;18.30;;;;;;2266194;61;20356;-65
2022/03/11 08:15:44;0.00;0.00;0.62;0.00;0.00;0.62;3.10;2.20;;;21.10;18.30;;;;;;2265386;61;20381;-65
2022/03/11 08:18:30;0.00;0.00;0.62;0.00;0.00;0.62;2.80;2.37;;;21.10;18.30;;;;;;2265904;61;20441;-64
2022/03/11 08:21:16;0.00;0.00;0.62;0.00;0.00;0.62;3.07;2.30;;;21.20;18.40;;;;;;2266220;61;20396;-63
2022/03/11 08:24:01;0.00;0.00;0.62;0.00;0.00;0.62;3.00;2.50;;;21.20;18.40;;;;;;2264931;61;20360;-63
2022/03/11 08:26:47;0.00;0.00;0.62;0.00;0.00;0.62;3.10;2.40;;;21.20;18.40;;;;;;2266222;61;20587;-61
2022/03/11 08:29:34;0.00;0.00;0.62;0.00;0.00;0.62;4.07;2.50;;;21.20;18.40;;;;;;2266112;61;20372;-65
2022/03/11 08:32:19;0.00;0.00;0.62;0.00;0.00;0.62;2.50;2.23;;;21.20;18.40;;;;;;2265588;61;20365;-65
2022/03/11 08:35:06;0.00;0.00;0.62;0.00;0.00;0.62;3.60;2.20;;;21.30;18.50;;;;;;2266217;61;20377;-66
2022/03/11 08:37:51;0.00;0.00;0.62;0.00;0.00;0.62;2.97;2.53;;;21.30;18.50;;;;;;2265712;61;20427;-66
2022/03/11 08:40:36;0.00;0.00;0.62;0.00;0.00;0.62;2.90;2.20;;;21.30;18.50;;;;;;2266000;61;20365;-64
2022/03/11 08:43:22;0.00;0.00;0.62;0.00;0.00;0.62;4.83;2.40;;;21.30;18.50;;;;;;2266088;61;20437;-64
2022/03/11 08:46:12;0.00;0.00;0.62;0.00;0.00;0.62;2.67;2.47;;;21.30;18.50;;;;;;2265038;61;20384;-64
2022/03/11 08:48:57;0.00;0.00;0.62;0.00;0.00;0.62;3.33;2.17;;;21.30;18.50;;;;;;2266150;61;20364;-63
2022/03/11 08:51:43;0.00;0.00;0.62;0.00;0.00;0.62;2.90;2.00;;;21.40;18.50;;;;;;2266162;61;20430;-63
2022/03/11 08:54:28;0.00;0.00;0.62;0.00;0.00;0.62;3.57;2.33;;;21.40;18.60;;;;;;2264951;61;20463;-64
2022/03/11 08:57:13;0.00;0.00;0.62;0.00;0.00;0.62;3.00;2.10;;;21.40;18.50;;;;;;2265927;61;20388;-63
2022/03/11 08:59:57;0.00;0.00;0.62;0.00;0.00;0.62;2.63;2.17;;;21.40;18.60;;;;;;2265401;61;20361;-61
2022/03/11 09:02:44;0.00;0.00;0.62;0.00;0.00;0.62;2.63;2.03;;;21.40;18.60;;;;;;2265502;61;20361;-64
2022/03/11 09:05:28;0.00;0.00;0.62;0.00;0.00;0.62;2.50;2.13;;;21.40;18.60;;;;;;2266032;61;20385;-65
2022/03/11 09:08:13;0.00;0.00;0.62;0.00;0.00;0.62;2.83;2.10;;;21.50;18.60;;;;;;2264981;61;20727;-63
2022/03/11 09:10:57;0.00;0.00;0.62;0.00;0.00;0.62;2.47;2.13;;;21.50;18.60;;;;;;2265996;61;20377;-64
2022/03/11 09:13:43;0.00;0.00;0.62;0.00;0.00;0.62;2.77;1.97;;;21.50;18.60;;;;;;2266089;61;20705;-64
2022/03/11 09:16:27;0.00;0.00;0.62;0.00;0.00;0.62;3.07;1.90;;;21.50;18.60;;;;;;2264844;61;20376;-65
2022/03/11 09:19:13;0.00;0.00;0.62;0.00;0.00;0.62;2.50;2.00;;;21.50;18.60;;;;;;2265986;61;20381;-62
2022/03/11 09:21:59;0.00;0.00;0.62;0.00;0.00;0.62;2.70;2.10;;;21.60;18.70;;;;;;2265207;61;20980;-62
2022/03/11 09:24:44;0.00;0.00;0.62;0.00;0.00;0.62;2.50;2.00;;;21.60;18.70;;;;;;2265534;61;20373;-66
2022/03/11 09:27:30;0.00;0.00;0.62;0.00;0.00;0.62;2.60;2.03;;;21.60;18.70;;;;;;2265981;61;20397;-63
2022/03/11 09:30:15;0.00;0.00;0.62;0.00;0.00;0.62;3.03;1.90;;;21.60;18.70;;;;;;2265045;61;20361;-64
2022/03/11 09:32:59;0.00;0.00;0.62;0.00;0.00;0.62;2.80;1.90;;;21.70;18.80;;;;;;2265940;61;20361;-63
2022/03/11 09:35:45;0.00;0.00;0.62;0.00;0.00;0.62;2.30;1.80;;;21.70;18.80;;;;;;2266009;61;20381;-63
2022/03/11 09:38:30;0.00;0.00;0.62;0.00;0.00;0.62;2.70;2.40;;;21.70;18.80;;;;;;2264733;61;20694;-62
2022/03/11 09:41:16;0.00;0.00;0.62;0.00;0.00;0.62;2.60;1.83;;;21.70;18.80;;;;;;2266015;61;20445;-63
2022/03/11 09:44:02;0.00;0.00;0.62;0.00;0.00;0.62;2.87;2.00;;;21.70;18.80;;;;;;2265343;61;20373;-62
2022/03/11 09:46:47;0.00;0.00;0.62;0.00;0.00;0.62;2.57;2.00;;;21.80;18.90;;;;;;2265444;61;20392;-66
2022/03/11 09:49:35;0.00;0.00;0.62;0.00;0.00;0.62;2.70;1.90;;;21.80;18.90;;;;;;2266013;61;20361;-63
2022/03/11 09:52:23;0.00;0.00;0.62;0.00;0.00;0.62;2.10;1.60;;;21.80;18.90;;;;;;2264987;61;20692;-65
2022/03/11 09:55:08;0.00;0.00;0.62;0.00;0.00;0.62;2.47;1.90;;;21.80;18.90;;;;;;2265645;61;20385;-64
2022/03/11 09:57:55;0.00;0.00;0.62;0.00;0.00;0.62;2.40;1.90;;;21.80;18.90;;;;;;2265401;61;20431;-63
2022/03/11 10:00:40;0.00;0.00;0.62;0.00;0.00;0.62;2.40;1.90;;;21.90;19.00;;;;;;2264900;61;20413;-62
2022/03/11 10:03:29;0.00;0.00;0.62;0.00;0.00;0.62;1.80;1.60;;;21.90;19.00;;;;;;2265809;61;20353;-66
2022/03/11 10:06:13;0.00;0.00;0.62;0.00;0.00;0.62;3.10;2.23;;;21.90;19.00;;;;;;2265285;61;20590;-65
2022/03/11 10:08:59;0.00;0.00;0.62;0.00;0.00;0.62;3.60;2.30;;;22.00;19.10;;;;;;2265505;61;20365;-65
2022/03/11 10:11:46;0.00;0.00;0.62;0.00;0.00;0.62;2.53;2.30;;;22.00;19.10;;;;;;2265796;61;20465;-64
2022/03/11 10:14:34;0.00;0.00;0.62;0.00;0.00;0.62;2.30;1.80;;;22.00;19.10;;;;;;2264861;61;20611;-63
2022/03/11 10:17:20;0.00;0.00;0.62;0.00;0.00;0.62;2.70;1.57;;;22.00;19.10;;;;;;2265858;61;20384;-66
2022/03/11 10:20:08;0.00;0.00;0.62;0.00;0.00;0.62;2.63;1.63;;;22.10;19.10;;;;;;2262945;61;20361;-65
2022/03/11 10:22:53;0.00;0.00;0.62;0.00;0.00;0.62;2.60;1.93;;;22.10;19.20;;;;;;2260690;61;20574;-63
2022/03/11 10:25:39;0.00;0.00;0.62;0.00;0.00;0.62;2.30;1.97;;;22.10;19.10;;;;;;2261830;61;20723;-65
2022/03/11 10:28:27;0.00;0.00;0.62;0.00;0.00;0.62;2.27;1.60;;;22.20;19.20;;;;;;2260884;61;20591;-65
2022/03/11 10:31:11;0.00;0.00;0.62;0.00;0.00;0.62;2.70;2.40;;;22.20;19.20;;;;;;2261012;61;20358;-63
2022/03/11 10:34:21;0.00;0.00;0.62;0.00;0.00;0.62;2.83;1.80;;;22.20;19.20;;;;;;2261669;61;20462;-63
2022/03/11 10:37:09;0.00;0.00;0.62;0.00;0.00;0.62;4.53;2.10;;;22.30;19.30;;;;;;2260511;61;20424;-63
2022/03/11 10:39:55;0.00;0.00;0.62;0.00;0.00;0.62;2.43;1.67;;;22.30;19.30;;;;;;2261945;61;20412;-63
2022/03/11 10:42:42;0.00;0.00;0.62;0.00;0.00;0.62;2.20;1.70;;;22.30;19.30;;;;;;2261745;61;20357;-64
2022/03/11 10:45:26;0.00;0.00;0.62;0.00;0.00;0.62;2.23;1.67;;;22.30;19.30;;;;;;2260624;61;20381;-66
2022/03/11 10:48:11;0.00;0.00;0.62;0.00;0.00;0.62;2.73;1.70;;;22.40;19.30;;;;;;2261785;61;20584;-63
2022/03/11 10:50:55;0.00;0.00;0.62;0.00;0.00;0.62;2.57;1.77;;;22.40;19.30;;;;;;2260871;61;20381;-63
2022/03/11 10:53:41;0.00;0.00;0.62;0.00;0.00;0.62;2.20;1.60;;;22.50;19.40;;;;;;2261244;61;20370;-65